sensor_id;sensor_type;location;lat;lon;timestamp;P1;durP1;ratioP1;P2;durP2;ratioP2
47625;SDS011;33342;45.574;9.252;2023-07-29T01:55:19;11.13;;;5.85;;
47625;SDS011;33342;45.574;9.252;2023-07-29T04:56:43;9.30;;;5.75;;
47625;SDS011;33342;45.574;9.252;2023-07-29T21:40:51;9.77;;;5.13;;
47625;SDS011;33342;45.574;9.252;2023-07-29T21:43:18;12.32;;;5.70;;
47625;SDS011;33342;45.574;9.252;2023-07-29T21:45:45;12.57;;;7.20;;
47625;SDS011;33342;45.574;9.252;2023-07-29T21:48:13;10.00;;;6.85;;
47625;SDS011;33342;45.574;9.252;2023-07-29T21:50:43;13.05;;;4.40;;
47625;SDS011;33342;45.574;9.252;2023-07-29T21:53:10;8.38;;;4.63;;
47625;SDS011;33342;45.574;9.252;2023-07-29T21:55:41;8.15;;;4.35;;
47625;SDS011;33342;45.574;9.252;2023-07-29T21:58:08;11.02;;;4.35;;
47625;SDS011;33342;45.574;9.252;2023-07-29T22:00:35;9.85;;;4.15;;
47625;SDS011;33342;45.574;9.252;2023-07-29T22:03:03;10.43;;;4.90;;
47625;SDS011;33342;45.574;9.252;2023-07-29T22:05:30;12.35;;;5.45;;
47625;SDS011;33342;45.574;9.252;2023-07-29T22:07:58;12.70;;;5.25;;
47625;SDS011;33342;45.574;9.252;2023-07-29T22:39:57;13.13;;;6.47;;
47625;SDS011;33342;45.574;9.252;2023-07-29T22:42:25;7.22;;;3.38;;
47625;SDS011;33342;45.574;9.252;2023-07-29T22:44:52;5.90;;;3.05;;
47625;SDS011;33342;45.574;9.252;2023-07-29T22:47:19;9.68;;;4.50;;
47625;SDS011;33342;45.574;9.252;2023-07-29T22:49:46;6.45;;;3.38;;
47625;SDS011;33342;45.574;9.252;2023-07-29T22:52:14;7.70;;;4.45;;
47625;SDS011;33342;45.574;9.252;2023-07-29T22:54:41;6.70;;;3.40;;
47625;SDS011;33342;45.574;9.252;2023-07-29T22:57:08;6.78;;;2.95;;
47625;SDS011;33342;45.574;9.252;2023-07-29T22:59:35;4.47;;;1.75;;
47625;SDS011;33342;45.574;9.252;2023-07-29T23:02:03;5.70;;;2.20;;
47625;SDS011;33342;45.574;9.252;2023-07-29T23:04:31;4.70;;;1.70;;
47625;SDS011;33342;45.574;9.252;2023-07-29T23:09:27;2.60;;;1.10;;
47625;SDS011;33342;45.574;9.252;2023-07-29T23:11:54;2.60;;;1.00;;
47625;SDS011;33342;45.574;9.252;2023-07-29T23:14:22;3.63;;;1.40;;
47625;SDS011;33342;45.574;9.252;2023-07-29T23:16:51;5.30;;;1.90;;
47625;SDS011;33342;45.574;9.252;2023-07-29T23:19:18;4.30;;;1.60;;
47625;SDS011;33342;45.574;9.252;2023-07-29T23:36:30;12.30;;;8.00;;
47625;SDS011;33342;45.574;9.252;2023-07-29T23:38:57;42.80;;;32.85;;
47625;SDS011;33342;45.574;9.252;2023-07-29T23:41:24;48.03;;;39.55;;
47625;SDS011;33342;45.574;9.252;2023-07-29T23:43:52;56.67;;;44.22;;
47625;SDS011;33342;45.574;9.252;2023-07-29T23:46:19;50.85;;;39.38;;
47625;SDS011;33342;45.574;9.252;2023-07-29T23:48:47;46.00;;;36.25;;
47625;SDS011;33342;45.574;9.252;2023-07-29T23:51:14;42.20;;;32.55;;
47625;SDS011;33342;45.574;9.252;2023-07-29T23:53:41;32.42;;;25.15;;
47625;SDS011;33342;45.574;9.252;2023-07-29T23:56:08;16.45;;;12.05;;
47625;SDS011;33342;45.574;9.252;2023-07-29T23:58:35;15.77;;;11.13;;
